• Join FlightAware (Why Join?)
  • Login
  • US Flag 
11:22AM EDT


 

Airport Tracker/Info


-or-


 

Live Flight TrackerFlight Track Log ✈ AAL1459 ✈ 10-May-2013 ✈ KORD - KRNO

Flight Track Log - Related Links

Times and Time Zones

All times are in EDT time to prevent confusion due to time zone crossing. See the AAL1459 flight status page for this flight to view local times or setup timezone preferences in your user account.

Time Position Orientation Groundspeed Altitude Reporting Facility
EDT Latitude Longitude Course Direction KTS MPH feet Rate Location/Type
07:44PM 42.0000 -87.9500 270° West 162 186 1,900  Level Chicago TRACON
07:45PM 42.0500 -87.9833 334° Northwest 196 226 3,200 1,560 Climbing Chicago TRACON
07:46PM 41.9667 -88.3689 270° West  Level FlightAware Approximate
07:46PM 42.0825 -88.0939 292° West 262 302 6,000  Level Chicago Center
07:47PM 41.9667 -88.5252 270° West  Level FlightAware Approximate
07:47PM 42.0219 -88.1853 228° Southwest 279 321 9,200  Level Chicago Center
07:48PM 41.9668 -88.6815 270° West  Level FlightAware Approximate
07:48PM 41.9867 -88.2847 245° Southwest 299 344 11,400  Level Chicago Center
07:49PM 41.9668 -88.8378 270° West  Level FlightAware Approximate
07:49PM 41.9811 -88.4053 266° West 346 398 12,500  Level Chicago Center
07:50PM 42.0017 -88.5375 282° West 361 415 15,400 2,700 Climbing Chicago Center
07:51PM 42.0236 -88.6717 282° West 369 425 18,100 2,580 Climbing Chicago Center
07:52PM 42.0397 -88.8397 277° West 387 445 20,800 2,400 Climbing Chicago Center
07:53PM 42.0467 -88.9856 274° West 391 450 23,100 1,920 Climbing Chicago Center
07:54PM 42.0561 -89.1333 275° West 396 456 24,800 1,500 Climbing Chicago Center
07:55PM 42.0656 -89.2897 275° West 424 488 26,300 1,500 Climbing Chicago Center
07:57PM 42.0761 -89.4692 275° West 428 493 27,900 1,680 Climbing Chicago Center
07:58PM 42.0894 -89.6325 276° West 438 504 29,800 1,680 Climbing Chicago Center
07:59PM 42.1008 -89.7892 276° West 425 489 31,600 1,500 Climbing Chicago Center
08:00PM 42.1150 -89.9667 276° West 421 484 33,000 1,140 Climbing Chicago Center
08:01PM 42.1281 -90.1203 277° West 419 482 34,000 480 Climbing Chicago Center
08:02PM 42.1244 -90.2742 268° West 413 475 34,000  Level Chicago Center
08:03PM 42.1225 -90.4275 269° West 413 475 34,000  Level Chicago Center
08:04PM 42.1183 -90.5828 268° West 416 479 34,000  Level Chicago Center
08:05PM 42.1150 -90.7719 269° West 422 486 34,000  Level Chicago Center
08:06PM 42.1117 -90.9303 268° West 425 489 34,000  Level Chicago Center
08:07PM 42.1078 -91.0919 268° West 432 497 34,000  Level Chicago Center
08:08PM 42.1031 -91.2531 268° West 433 498 34,000  Level Chicago Center
08:09PM 42.0989 -91.4158 268° West 434 499 34,000  Level Chicago Center
08:10PM 42.0931 -91.6097 268° West 435 501 34,000  Level Chicago Center
08:11PM 42.0892 -91.7719 268° West 435 501 34,000  Level Chicago Center
08:12PM 42.0831 -91.9319 267° West 431 496 34,000  Level Chicago Center
08:13PM 42.0783 -92.0961 268° West 435 501 34,000  Level Chicago Center
08:14PM 42.0728 -92.2578 267° West 436 502 34,000  Level Chicago Center
08:15PM 42.0672 -92.4208 267° West 437 503 34,000  Level Chicago Center
08:16PM 42.0597 -92.6150 267° West 435 501 34,000  Level Chicago Center
08:17PM 42.0547 -92.7758 268° West 433 498 34,000  Level Chicago Center
08:18PM 42.0472 -92.9386 267° West 437 503 34,000  Level Chicago Center
08:19PM 42.0414 -93.1017 267° West 440 506 34,000  Level Chicago Center
08:21PM 42.0328 -93.2628 266° West 437 503 34,000  Level Minneapolis Center
08:22PM 42.0236 -93.4600 266° West 442 509 34,000  Level Minneapolis Center
08:23PM 42.0181 -93.6272 267° West 450 518 34,000  Level Minneapolis Center
08:24PM 42.0094 -93.8244 267° West 448 516 34,000  Level Minneapolis Center
08:25PM 42.0000 -94.0017 266° West 447 514 34,000  Level Minneapolis Center
08:26PM 41.9847 -94.1342 261° West 450 518 34,000  Level Minneapolis Center
08:27PM 41.9586 -94.3325 260° West 450 518 34,000  Level Minneapolis Center
08:28PM 41.9389 -94.4972 261° West 449 517 34,000  Level Minneapolis Center
08:29PM 41.9175 -94.6606 260° West 446 513 34,000  Level Minneapolis Center
08:30PM 41.8961 -94.8242 260° West 446 513 34,000  Level Minneapolis Center
08:31PM 41.8697 -95.0186 260° West 442 509 34,000  Level Minneapolis Center
08:32PM 41.8497 -95.1825 261° West 445 512 34,000  Level Minneapolis Center
08:33PM 41.8261 -95.3458 259° West 447 514 34,000  Level Minneapolis Center
08:34PM 41.8044 -95.5083 260° West 446 513 34,000  Level Minneapolis Center
08:35PM 41.7869 -95.6722 262° West 445 512 34,000  Level Minneapolis Center
08:36PM 41.7922 -95.8333 273° West 437 503 34,000  Level Minneapolis Center
08:37PM 41.7942 -96.0306 271° West 444 511 34,000  Level Minneapolis Center
08:38PM 41.7969 -96.1967 271° West 449 517 34,000  Level Minneapolis Center
08:39PM 41.7989 -96.3600 271° West 445 512 34,000  Level Minneapolis Center
08:40PM 41.8011 -96.5264 271° West 447 514 34,000  Level Minneapolis Center
08:41PM 41.8022 -96.6928 271° West 448 516 34,000  Level Minneapolis Center
08:42PM 41.8033 -96.8894 270° West 445 512 34,000  Level Minneapolis Center
08:43PM 41.8036 -97.0547 270° West 443 510 34,000  Level Minneapolis Center
08:44PM 41.8050 -97.2525 271° West 444 511 34,000  Level Minneapolis Center
08:46PM 41.8056 -97.4169 270° West 443 510 34,000  Level Minneapolis Center
08:47PM 41.8064 -97.5811 270° West 442 509 34,000  Level Minneapolis Center
08:48PM 41.8058 -97.7439 270° West 441 507 34,000  Level Minneapolis Center
08:49PM 41.8061 -97.9094 270° West 442 509 34,000  Level Minneapolis Center
08:50PM 41.8053 -98.1072 270° West 443 510 34,000  Level Minneapolis Center
08:51PM 41.8036 -98.2628 269° West 445 512 34,000  Level Minneapolis Center
08:52PM 41.8028 -98.4275 270° West 444 511 34,000  Level Minneapolis Center
08:53PM 41.8011 -98.6250 269° West 444 511 34,000  Level Minneapolis Center
08:54PM 41.8003 -98.7903 270° West 445 512 34,000  Level Minneapolis Center
08:55PM 41.7983 -98.9544 269° West 445 512 34,000  Level Minneapolis Center
08:56PM 41.7967 -99.1194 269° West 446 513 34,000  Level Minneapolis Center
08:56PM 41.7953 -99.1533 267° West 446 513 34,000  Level Denver Center
08:57PM 41.7922 -99.3856 269° West 449 517 34,000  Level Denver Center
08:58PM 41.7892 -99.5514 269° West 447 514 34,000  Level Denver Center
08:59PM 41.7861 -99.7189 269° West 450 518 34,000  Level Denver Center
09:00PM 41.7831 -99.8892 269° West 450 518 34,000  Level Denver Center
09:01PM 41.7783 -100.0764 268° West 451 519 34,000  Level Denver Center
09:02PM 41.7756 -100.2372 269° West 452 520 34,000  Level Denver Center
09:04PM 41.7728 -100.3967 269° West 450 518 34,000  Level Denver Center
09:05PM 41.7678 -100.5858 268° West 456 525 34,000  Level Denver Center
09:06PM 41.7633 -100.7461 268° West 454 522 34,000  Level Denver Center
09:07PM 41.7578 -100.9322 268° West 450 518 34,000  Level Denver Center
09:08PM 41.7531 -101.0928 268° West 453 521 34,000  Level Denver Center
09:09PM 41.7497 -101.2264 268° West 453 521 34,000  Level Denver Center
09:10PM 41.7417 -101.4408 267° West 453 521 34,000  Level Denver Center
09:11PM 41.7364 -101.6283 268° West 452 520 34,000  Level Denver Center
09:12PM 41.7294 -101.7897 267° West 455 524 34,000  Level Denver Center
09:13PM 41.7233 -101.9783 268° West 456 525 34,000  Level Denver Center
09:14PM 41.7172 -102.1131 267° West 457 526 34,000  Level Denver Center
09:15PM 41.7111 -102.3000 268° West 454 522 34,000  Level Denver Center
09:16PM 41.7025 -102.4906 267° West 460 529 34,000  Level Denver Center
09:17PM 41.6947 -102.6689 267° West 458 527 34,000  Level Denver Center
09:18PM 41.6856 -102.8325 266° West 461 531 34,000  Level Denver Center
09:19PM 41.6781 -103.0211 267° West 454 522 34,000  Level Denver Center
09:20PM 41.6692 -103.1836 266° West 457 526 34,000  Level Denver Center
09:21PM 41.6619 -103.3467 267° West 459 528 34,000  Level Denver Center
09:22PM 41.6522 -103.5367 266° West 458 527 34,000  Level Denver Center
09:23PM 41.6428 -103.7000 266° West 459 528 34,000  Level Denver Center
09:24PM 41.6339 -103.8897 266° West 459 528 34,000  Level Denver Center
09:25PM 41.6236 -104.0792 266° West 458 527 34,000  Level Denver Center
09:26PM 41.6125 -104.2692 266° West 457 526 34,000 660 Level Denver Center
09:27PM 41.6028 -104.4331 266° West 460 529 35,400 1,260 Climbing Denver Center
09:28PM 41.5911 -104.6200 265° West 454 522 36,700 1,080 Climbing Denver Center
09:29PM 41.5819 -104.7828 266° West 458 527 37,700 600 Climbing Denver Center
09:30PM 41.5700 -104.9703 265° West 456 525 38,000 120 Climbing Denver Center
09:31PM 41.5583 -105.1325 265° West 459 528 38,000  Level Denver Center
09:33PM 41.5489 -105.2961 266° West 460 529 38,000  Level Denver Center
09:34PM 41.5358 -105.4847 265° West 458 527 38,000  Level Denver Center
09:35PM 41.5247 -105.6472 265° West 459 528 38,000  Level Denver Center
09:36PM 41.5111 -105.8350 265° West 455 524 38,000  Level Denver Center
09:37PM 41.4997 -105.9978 265° West 459 528 38,000  Level Denver Center
09:38PM 41.4853 -106.1858 264° West 459 528 38,000  Level Denver Center
09:39PM 41.4706 -106.3444 263° West 454 522 38,000  Level Denver Center
09:40PM 41.4550 -106.5336 264° West 457 526 38,000  Level Denver Center
09:41PM 41.4406 -106.6928 263° West 455 524 38,000  Level Denver Center
09:42PM 41.4256 -106.8547 263° West 459 528 38,000  Level Denver Center
09:43PM 41.4089 -107.0450 263° West 462 532 38,000  Level Denver Center
09:44PM 41.3947 -107.2072 263° West 463 533 38,000  Level Denver Center
09:45PM 41.3775 -107.3967 263° West 462 532 38,000  Level Denver Center
09:46PM 41.3664 -107.5586 265° West 460 529 38,000  Level Denver Center
09:47PM 41.3553 -107.7467 266° West 458 527 38,000  Level Denver Center
09:48PM 41.3442 -107.9078 265° West 457 526 38,000  Level Denver Center
09:49PM 41.3367 -108.0144 265° West 455 524 38,000  Level Salt Lake Center
09:50PM 41.3264 -108.1767 265° West 459 528 38,000  Level Salt Lake Center
09:50PM 41.3211 -108.2561 265° West 458 527 38,000  Level Denver Center
09:51PM 41.3072 -108.4456 264° West 461 531 38,000  Level Denver Center
09:52PM 41.2953 -108.6072 264° West 459 528 38,000  Level Denver Center
09:53PM 41.2900 -108.6900 265° West 462 532 38,000  Level Salt Lake Center
09:54PM 41.2747 -108.8814 264° West 465 535 38,000  Level Salt Lake Center
09:55PM 41.2622 -109.0472 264° West 465 535 38,000  Level Salt Lake Center
09:56PM 41.2489 -109.2150 264° West 468 539 38,000  Level Salt Lake Center
09:57PM 41.2339 -109.4086 264° West 468 539 38,000  Level Salt Lake Center
09:58PM 41.2206 -109.5728 264° West 466 536 38,000  Level Salt Lake Center
09:59PM 41.2044 -109.7628 264° West 463 533 38,000  Level Salt Lake Center
10:00PM 41.1914 -109.9239 264° West 459 528 38,000  Level Salt Lake Center
10:01PM 41.1781 -110.0844 264° West 458 527 38,000  Level Salt Lake Center
10:02PM 41.1611 -110.2722 263° West 459 528 38,000  Level Salt Lake Center
10:03PM 41.1475 -110.4342 264° West 461 531 38,000  Level Salt Lake Center
10:04PM 41.1308 -110.6233 263° West 462 532 38,000  Level Salt Lake Center
10:05PM 41.1156 -110.7847 263° West 462 532 38,000  Level Salt Lake Center
10:06PM 41.1008 -110.9456 263° West 463 533 38,000  Level Salt Lake Center
10:07PM 41.0853 -111.1147 263° West 464 534 38,000  Level Salt Lake Center
10:08PM 41.0664 -111.3206 263° West 470 541 38,000  Level Salt Lake Center
10:09PM 41.0494 -111.4919 263° West 470 541 38,000  Level Salt Lake Center
10:10PM 41.0325 -111.6636 263° West 470 541 38,000  Level Salt Lake Center
10:11PM 41.0147 -111.8436 263° West 473 544 38,000  Level Salt Lake Center
10:12PM 40.9956 -112.0225 262° West 471 542 38,000  Level Salt Lake Center
10:13PM 40.9781 -112.1950 262° West 471 542 38,000  Level Salt Lake Center
10:14PM 40.9597 -112.3656 262° West 468 539 38,000  Level Salt Lake Center
10:15PM 40.9414 -112.5364 262° West 469 540 38,000  Level Salt Lake Center
10:16PM 40.9233 -112.7069 262° West 470 541 38,000 -12,420 Level Salt Lake Center
10:17PM 40.9044 -112.8778 262° West 471 542 12,600  Descending Salt Lake Center
10:19PM 40.8664 -113.2192 262° West 472 543 38,000 8,220 Climbing Salt Lake Center
10:20PM 40.8433 -113.4236 262° West 471 542 38,000  Level Salt Lake Center
10:21PM 40.8242 -113.5942 262° West 472 543 38,000  Level Salt Lake Center
10:22PM 40.8022 -113.7644 260° West 471 542 38,000  Level Salt Lake Center
10:23PM 40.7831 -113.9308 261° West 463 533 38,000  Level Salt Lake Center
10:24PM 40.7628 -114.0950 261° West 456 525 38,000  Level Salt Lake Center
10:25PM 40.7419 -114.2575 260° West 452 520 38,000  Level Salt Lake Center
10:27PM 40.7242 -114.4200 262° West 450 518 38,000  Level Salt Lake Center
10:28PM 40.7000 -114.6142 261° West 449 517 38,000  Level Salt Lake Center
10:29PM 40.6792 -114.7767 260° West 450 518 38,000  Level Salt Lake Center
10:30PM 40.6581 -114.9364 260° West 450 518 38,000  Level Salt Lake Center
10:31PM 40.6372 -115.0911 260° West 450 518 38,000  Level Salt Lake Center
10:32PM 40.6108 -115.2717 259° West 450 518 38,000  Level Salt Lake Center
10:33PM 40.5911 -115.4267 261° West 448 516 38,000  Level Salt Lake Center
10:34PM 40.5664 -115.6053 260° West 447 514 38,000  Level Salt Lake Center
10:35PM 40.5456 -115.7594 260° West 448 516 38,000  Level Salt Lake Center
10:36PM 40.5250 -115.9139 260° West 448 516 38,000  Level Salt Lake Center
10:37PM 40.5000 -116.0928 260° West 446 513 38,000  Level Salt Lake Center
10:38PM 40.4789 -116.2461 260° West 446 513 38,000  Level Salt Lake Center
10:39PM 40.4544 -116.4236 260° West 443 510 38,000  Level Salt Lake Center
10:40PM 40.4325 -116.5747 259° West 441 507 38,000 -300 Level Salt Lake Center
10:41PM 40.4114 -116.7244 260° West 437 503 37,500 -600 Descending Salt Lake Center
10:42PM 40.3861 -116.8844 258° West 445 512 36,800 -780 Descending Salt Lake Center
10:43PM 40.3594 -117.0764 260° West 459 528 36,000 -420 Descending Salt Lake Center
10:44PM 40.3186 -117.2261 250° West 460 529 36,000  Level Salt Lake Center
10:45PM 40.2475 -117.3942 241° Southwest 472 543 36,000  Level Salt Lake Center
10:46PM 40.1864 -117.5381 241° Southwest 472 543 36,000 -300 Level Salt Lake Center
10:47PM 40.1247 -117.6825 241° Southwest 475 547 35,400 -1,020 Descending Salt Lake Center
10:48PM 40.0722 -117.8100 242° Southwest 470 541 34,200 -2,040 Descending Oakland Center
10:49PM 40.0083 -117.9575 241° Southwest 468 539 31,900 -2,340 Descending Oakland Center
10:50PM 39.9439 -118.1069 241° Southwest 473 544 29,500 -2,400 Descending Oakland Center
10:51PM 39.8789 -118.2592 241° Southwest 480 552 27,100 -2,460 Descending Oakland Center
10:52PM 39.8158 -118.4033 240° Southwest 466 536 24,600 -2,460 Descending Oakland Center
10:53PM 39.7558 -118.5422 241° Southwest 443 510 22,200 -2,280 Descending Oakland Center
10:54PM 39.6969 -118.6761 240° Southwest 431 496 20,000 -1,620 Descending Oakland Center
10:55PM 39.6406 -118.8047 240° Southwest 419 482 19,000 -1,080 Descending Oakland Center
10:56PM 39.5739 -118.9556 240° Southwest 409 471 17,900 -1,320 Descending Oakland Center
10:57PM 39.5200 -119.0750 240° Southwest 390 449 16,400 -1,380 Descending Oakland Center
10:58PM 39.4689 -119.1925 241° Southwest 380 437 15,100 -1,440 Descending Oakland Center
10:59PM 39.4183 -119.3061 240° Southwest 370 426 13,500 -1,140 Descending Oakland Center
11:00PM 39.3678 -119.4036 236° Southwest 332 382 12,800 -720 Descending Oakland Center
11:01PM 39.3281 -119.4925 240° Southwest 295 339 12,100 -1,140 Descending Oakland Center
11:02PM 39.3111 -119.5867 257° West 279 321 10,600 -1,500 Descending Oakland Center
11:03PM 39.3056 -119.6822 266° West 269 310 9,100 -1,500 Descending Oakland Center